Time;durP1;ratioP1;P1;durP2;ratioP2;P2;SDS_P1;SDS_P2;PMS_P1;PMS_P2;Temp;Humidity;BMP_temperature;BMP_pressure;BME280_temperature;BME280_humidity;BME280_pressure;Samples;Min_cycle;Max_cycle;Signal;HPM_P1;HPM_P2
2023/10/29 00:01:04;;;;;;;1.27;0.97;;;16.90;99.90;;;;;;4997732;28;20192;-87
2023/10/29 00:03:30;;;;;;;1.70;0.90;;;16.90;99.90;;;;;;5002262;28;20189;-87
2023/10/29 00:05:55;;;;;;;1.00;0.90;;;16.90;99.90;;;;;;5013333;28;20543;-87
2023/10/29 00:08:21;;;;;;;2.37;1.00;;;16.90;99.90;;;;;;5005807;28;20206;-88
2023/10/29 00:10:47;;;;;;;1.63;0.90;;;16.90;99.90;;;;;;4994687;28;20181;-87
2023/10/29 00:13:12;;;;;;;1.20;1.00;;;16.90;99.90;;;;;;4997713;28;20177;-88
2023/10/29 00:15:38;;;;;;;1.87;1.00;;;16.90;99.90;;;;;;5016467;28;20551;-88
2023/10/29 00:18:13;;;;;;;0.90;0.77;;;16.90;99.90;;;;;;5009843;28;20567;-88
2023/10/29 00:20:39;;;;;;;2.17;1.10;;;16.90;99.90;;;;;;5015533;28;20189;-87
2023/10/29 00:23:05;;;;;;;1.13;1.00;;;16.90;99.90;;;;;;5006821;28;20259;-88
2023/10/29 00:25:30;;;;;;;1.60;1.10;;;16.90;99.90;;;;;;5014222;28;20583;-88
2023/10/29 00:27:56;;;;;;;1.33;0.80;;;16.90;99.90;;;;;;5012748;28;20200;-88
2023/10/29 00:30:22;;;;;;;1.03;0.93;;;16.90;99.90;;;;;;5001704;28;20180;-89
2023/10/29 00:32:48;;;;;;;1.70;0.90;;;16.90;99.90;;;;;;5000754;28;20268;-89
2023/10/29 00:35:13;;;;;;;1.13;0.93;;;16.90;99.90;;;;;;5026892;28;20200;-89
2023/10/29 00:37:39;;;;;;;1.87;1.10;;;16.90;99.90;;;;;;5014028;28;20171;-90
2023/10/29 00:40:06;;;;;;;1.93;1.10;;;16.90;99.90;;;;;;5006414;28;20169;-89
2023/10/29 00:42:31;;;;;;;1.20;0.90;;;16.90;99.90;;;;;;5014684;28;20228;-89
2023/10/29 00:44:57;;;;;;;1.17;1.00;;;16.90;99.90;;;;;;5007483;28;20200;-89
2023/10/29 00:47:23;;;;;;;1.10;0.90;;;16.90;99.90;;;;;;5018898;28;20212;-89
2023/10/29 00:49:48;;;;;;;1.10;1.00;;;16.90;99.90;;;;;;5008323;28;20182;-89
2023/10/29 00:52:15;;;;;;;2.90;1.00;;;16.90;99.90;;;;;;5019157;28;20176;-89
2023/10/29 00:54:40;;;;;;;1.90;1.13;;;16.90;99.90;;;;;;5004472;28;20185;-90
2023/10/29 00:57:09;;;;;;;0.70;0.70;;;16.90;99.90;;;;;;5017007;28;20189;-89
2023/10/29 00:59:36;;;;;;;1.47;1.10;;;16.90;99.90;;;;;;5004645;28;20177;-88
2023/10/29 01:02:02;;;;;;;1.00;0.83;;;16.90;99.90;;;;;;5016376;28;20366;-88
2023/10/29 01:04:28;;;;;;;1.10;1.00;;;16.90;99.90;;;;;;5005453;28;20183;-90
2023/10/29 01:06:53;;;;;;;1.23;0.80;;;16.90;99.90;;;;;;5013608;28;20404;-89
2023/10/29 01:09:19;;;;;;;1.13;1.00;;;16.90;99.90;;;;;;5010606;28;20171;-88
2023/10/29 01:11:46;;;;;;;1.10;0.90;;;16.90;99.90;;;;;;5000010;28;20351;-89
2023/10/29 01:14:12;;;;;;;1.47;1.10;;;16.90;99.90;;;;;;4999653;28;20173;-89
2023/10/29 01:16:39;;;;;;;1.93;1.00;;;16.90;99.90;;;;;;5007536;28;20263;-89
2023/10/29 01:19:05;;;;;;;1.00;0.80;;;16.90;99.90;;;;;;5029685;28;20173;-89
2023/10/29 01:21:31;;;;;;;0.80;0.80;;;16.90;99.90;;;;;;5006341;28;20184;-90
2023/10/29 01:23:57;;;;;;;1.93;1.00;;;16.90;99.90;;;;;;5015759;28;20176;-89
2023/10/29 01:26:24;;;;;;;2.13;0.90;;;16.90;99.90;;;;;;5010445;28;20212;-89
2023/10/29 01:28:49;;;;;;;0.97;0.97;;;16.90;99.90;;;;;;5017497;28;20169;-89
2023/10/29 01:31:15;;;;;;;3.23;1.00;;;16.90;99.90;;;;;;5032217;28;20428;-89
2023/10/29 01:33:41;;;;;;;1.20;1.10;;;16.90;99.90;;;;;;5018823;28;20173;-90
2023/10/29 01:36:07;;;;;;;1.17;1.00;;;16.90;99.90;;;;;;5001460;28;20206;-90
2023/10/29 01:38:33;;;;;;;1.50;1.00;;;16.80;99.90;;;;;;5017528;28;20177;-90
2023/10/29 01:40:59;;;;;;;1.53;1.13;;;16.90;99.90;;;;;;5005501;28;20181;-90
2023/10/29 01:43:25;;;;;;;1.30;0.87;;;16.90;99.90;;;;;;5017949;28;20172;-90
2023/10/29 01:45:51;;;;;;;1.00;0.90;;;16.90;99.90;;;;;;5008817;28;20197;-89
2023/10/29 01:48:17;;;;;;;1.03;0.77;;;16.80;99.90;;;;;;5032320;28;20179;-89
2023/10/29 01:50:43;;;;;;;1.07;0.97;;;16.90;99.90;;;;;;5028849;28;20200;-90
2023/10/29 01:53:09;;;;;;;1.10;0.87;;;16.90;99.90;;;;;;5002394;28;20594;-87
2023/10/29 01:55:38;;;;;;;1.20;1.00;;;16.90;99.90;;;;;;4997173;28;20203;-87
2023/10/29 01:58:04;;;;;;;1.27;0.90;;;16.80;99.90;;;;;;5011414;28;20207;-87
2023/10/29 02:00:30;;;;;;;1.30;1.00;;;16.90;99.90;;;;;;5014085;28;20181;-87
2023/10/29 02:02:57;;;;;;;1.67;0.90;;;16.90;99.90;;;;;;5007526;28;20472;-87
2023/10/29 02:05:23;;;;;;;1.43;0.93;;;16.80;99.90;;;;;;5033242;28;20684;-88
2023/10/29 02:07:48;;;;;;;1.33;0.93;;;16.90;99.90;;;;;;5005473;28;20571;-87
2023/10/29 02:10:14;;;;;;;2.17;0.87;;;16.90;99.90;;;;;;5014383;28;20173;-87
2023/10/29 02:12:40;;;;;;;0.87;0.67;;;16.80;99.90;;;;;;5010633;28;20176;-88
2023/10/29 02:15:07;;;;;;;0.73;0.70;;;16.80;99.90;;;;;;4996282;28;20181;-88
2023/10/29 02:17:33;;;;;;;0.73;0.73;;;16.80;99.90;;;;;;5002994;28;20169;-89
2023/10/29 02:19:58;;;;;;;1.00;0.90;;;16.80;99.90;;;;;;5017761;28;20169;-88
2023/10/29 02:22:27;;;;;;;0.80;0.80;;;16.80;99.90;;;;;;5012776;28;20173;-88
2023/10/29 02:24:53;;;;;;;1.57;1.00;;;16.90;99.90;;;;;;4998110;28;20451;-89
2023/10/29 02:27:19;;;;;;;1.10;0.90;;;16.80;99.90;;;;;;5007831;28;20204;-89
2023/10/29 02:29:45;;;;;;;1.30;0.97;;;16.80;99.90;;;;;;5000489;28;20173;-89
2023/10/29 02:32:11;;;;;;;0.80;0.80;;;16.80;99.90;;;;;;5006533;28;20179;-89
2023/10/29 02:34:36;;;;;;;1.00;0.90;;;16.80;99.90;;;;;;5000480;28;20188;-89
2023/10/29 02:37:02;;;;;;;0.93;0.90;;;16.80;99.90;;;;;;5002641;28;20169;-89
2023/10/29 02:39:28;;;;;;;0.77;0.77;;;16.80;99.90;;;;;;5021067;28;20184;-89
2023/10/29 02:41:54;;;;;;;1.50;1.00;;;16.80;99.90;;;;;;4999468;28;20172;-89
2023/10/29 02:44:19;;;;;;;1.37;1.10;;;16.90;99.90;;;;;;5006455;28;20211;-89
2023/10/29 02:46:45;;;;;;;0.80;0.80;;;16.80;99.90;;;;;;4998395;28;20606;-89
2023/10/29 02:49:11;;;;;;;0.80;0.80;;;16.80;99.90;;;;;;5016562;28;20186;-89
2023/10/29 02:51:36;;;;;;;1.00;0.80;;;16.80;99.90;;;;;;5016812;28;20230;-89
2023/10/29 02:54:03;;;;;;;1.00;0.90;;;16.90;99.90;;;;;;5007348;28;20199;-89
2023/10/29 02:56:30;;;;;;;1.37;0.90;;;16.80;99.90;;;;;;5018460;28;20205;-89
2023/10/29 02:58:56;;;;;;;0.83;0.60;;;16.80;99.90;;;;;;5005176;28;20466;-90
2023/10/29 03:01:21;;;;;;;1.50;0.90;;;16.90;99.90;;;;;;5017273;28;20633;-86
2023/10/29 03:03:47;;;;;;;1.10;1.00;;;16.80;99.90;;;;;;5012506;28;20512;-86
2023/10/29 03:06:13;;;;;;;0.83;0.80;;;16.80;99.90;;;;;;4997864;28;20217;-87
2023/10/29 03:08:39;;;;;;;1.53;0.80;;;16.80;99.90;;;;;;5018241;28;20192;-86
2023/10/29 03:11:05;;;;;;;0.97;0.87;;;16.80;99.90;;;;;;5014733;28;20162;-88
2023/10/29 03:13:30;;;;;;;1.07;0.90;;;16.80;99.90;;;;;;5004918;28;20214;-88
2023/10/29 03:15:56;;;;;;;0.90;0.90;;;16.80;99.90;;;;;;5016664;28;20191;-88
2023/10/29 03:18:22;;;;;;;1.10;1.00;;;16.80;99.90;;;;;;5012788;28;20177;-88
2023/10/29 03:20:48;;;;;;;1.20;1.00;;;16.80;99.90;;;;;;5010559;28;20453;-88
2023/10/29 03:23:15;;;;;;;0.80;0.80;;;16.80;99.90;;;;;;5013699;28;20192;-88
2023/10/29 03:25:41;;;;;;;1.30;0.90;;;16.80;99.90;;;;;;5007588;28;20466;-88
2023/10/29 03:28:06;;;;;;;0.93;0.80;;;16.80;99.90;;;;;;5000354;28;20203;-88
2023/10/29 03:30:32;;;;;;;1.27;1.00;;;16.80;99.90;;;;;;5007273;28;20179;-88
2023/10/29 03:32:59;;;;;;;1.47;0.80;;;16.80;99.90;;;;;;5033885;28;20179;-89
2023/10/29 03:35:27;;;;;;;0.80;0.80;;;16.80;99.90;;;;;;5003074;28;20191;-88
2023/10/29 03:37:54;;;;;;;1.00;0.90;;;16.80;99.90;;;;;;5017235;28;20252;-88
2023/10/29 03:40:19;;;;;;;1.00;0.90;;;16.80;99.90;;;;;;5014133;28;20250;-89
2023/10/29 03:42:46;;;;;;;0.70;0.70;;;16.80;99.90;;;;;;5019053;28;20198;-88
2023/10/29 03:45:12;;;;;;;1.30;0.70;;;16.80;99.90;;;;;;5012900;28;20640;-88
2023/10/29 03:47:37;;;;;;;1.30;0.80;;;16.80;99.90;;;;;;5005356;28;20182;-88
2023/10/29 03:50:03;;;;;;;1.07;0.80;;;16.80;99.90;;;;;;5004826;28;20426;-90
2023/10/29 03:52:29;;;;;;;1.20;0.90;;;16.80;99.90;;;;;;5016953;28;20171;-88
2023/10/29 03:54:55;;;;;;;1.00;0.90;;;16.80;99.90;;;;;;5011192;28;20227;-88
2023/10/29 03:57:20;;;;;;;0.80;0.70;;;16.80;99.90;;;;;;5015060;28;20179;-88
2023/10/29 03:59:46;;;;;;;1.40;1.00;;;16.80;99.90;;;;;;5013113;28;20173;-89
2023/10/29 04:02:12;;;;;;;1.00;0.80;;;16.80;99.90;;;;;;5011962;28;20644;-88
2023/10/29 04:04:38;;;;;;;1.03;0.90;;;16.80;99.90;;;;;;5012258;28;20185;-88
2023/10/29 04:07:03;;;;;;;0.83;0.83;;;16.80;99.90;;;;;;5008892;28;20487;-87
2023/10/29 04:09:29;;;;;;;0.83;0.80;;;16.80;99.90;;;;;;5016332;28;20192;-88
2023/10/29 04:11:55;;;;;;;1.10;0.83;;;16.80;99.90;;;;;;5010487;28;20173;-88
2023/10/29 04:14:21;;;;;;;1.03;0.90;;;16.80;99.90;;;;;;4998201;28;20186;-88
2023/10/29 04:16:47;;;;;;;0.80;0.80;;;16.80;99.90;;;;;;5006490;28;20180;-88
2023/10/29 04:19:13;;;;;;;1.13;0.80;;;16.80;99.90;;;;;;5036719;28;20186;-88
2023/10/29 04:21:38;;;;;;;1.80;0.90;;;16.80;99.90;;;;;;5010908;28;21111;-88
2023/10/29 04:24:04;;;;;;;1.33;0.90;;;16.80;99.90;;;;;;5024278;28;20257;-88
2023/10/29 04:26:31;;;;;;;1.17;0.80;;;16.80;99.90;;;;;;5019624;28;20207;-88
2023/10/29 04:28:56;;;;;;;0.73;0.73;;;16.80;99.90;;;;;;5005106;28;20170;-88
2023/10/29 04:31:22;;;;;;;1.00;0.87;;;16.80;99.90;;;;;;5014499;28;20638;-88
2023/10/29 04:33:48;;;;;;;1.00;0.90;;;16.80;99.90;;;;;;5024080;28;20183;-87
2023/10/29 04:36:22;;;;;;;2.10;0.80;;;16.80;99.90;;;;;;5009422;28;20173;-88
2023/10/29 04:38:48;;;;;;;0.60;0.60;;;16.80;99.90;;;;;;5020772;28;20177;-88
2023/10/29 04:41:14;;;;;;;0.80;0.77;;;16.80;99.90;;;;;;5036715;28;20180;-88
2023/10/29 04:43:43;;;;;;;1.00;0.80;;;16.80;99.90;;;;;;5008171;28;20187;-88
2023/10/29 04:46:15;;;;;;;0.97;0.80;;;16.80;99.90;;;;;;5006163;28;20240;-88
2023/10/29 04:48:43;;;;;;;0.80;0.80;;;16.80;99.90;;;;;;5009577;28;20315;-88
2023/10/29 04:51:09;;;;;;;0.87;0.83;;;16.80;99.90;;;;;;5001720;28;20187;-88
2023/10/29 04:53:36;;;;;;;1.00;0.90;;;16.80;99.90;;;;;;5008863;28;20161;-88
2023/10/29 04:56:03;;;;;;;0.80;0.80;;;16.80;99.90;;;;;;5000848;28;20170;-88
2023/10/29 04:58:33;;;;;;;1.17;0.90;;;16.80;99.90;;;;;;5011887;28;20178;-88
2023/10/29 05:00:59;;;;;;;0.93;0.80;;;16.80;99.90;;;;;;5003054;28;20215;-88
2023/10/29 05:03:27;;;;;;;1.00;0.90;;;16.80;99.90;;;;;;5011513;28;20193;-88
2023/10/29 05:05:56;;;;;;;0.80;0.60;;;16.80;99.90;;;;;;5003655;28;20213;-88
2023/10/29 05:08:22;;;;;;;1.00;0.80;;;16.80;99.90;;;;;;5018041;28;20352;-88
2023/10/29 05:10:48;;;;;;;0.70;0.70;;;16.80;99.90;;;;;;5003909;28;20421;-88
2023/10/29 05:13:14;;;;;;;0.97;0.70;;;16.80;99.90;;;;;;5005804;28;20573;-90
2023/10/29 05:15:40;;;;;;;1.17;0.90;;;16.80;99.90;;;;;;5002006;28;20180;-89
2023/10/29 05:18:06;;;;;;;1.03;0.83;;;16.80;99.90;;;;;;5006460;28;20586;-88
2023/10/29 05:20:32;;;;;;;0.93;0.70;;;16.80;99.90;;;;;;5001370;28;20220;-89
2023/10/29 05:22:57;;;;;;;1.37;0.70;;;16.80;99.90;;;;;;5007281;28;20242;-89
2023/10/29 05:25:23;;;;;;;1.00;0.80;;;16.80;99.90;;;;;;5019422;28;20177;-88
2023/10/29 05:27:53;;;;;;;0.60;0.60;;;16.80;99.90;;;;;;5017610;28;20274;-89
2023/10/29 05:30:20;;;;;;;0.70;0.70;;;16.80;99.90;;;;;;5016791;28;20178;-89
2023/10/29 05:32:46;;;;;;;1.10;0.80;;;16.80;99.90;;;;;;5014822;28;20409;-88
2023/10/29 05:35:12;;;;;;;1.00;0.90;;;16.70;99.90;;;;;;5011854;28;20192;-88
2023/10/29 05:37:38;;;;;;;0.77;0.77;;;16.70;99.90;;;;;;5015963;28;20173;-88
2023/10/29 05:40:04;;;;;;;0.90;0.63;;;16.80;99.90;;;;;;5011004;28;20175;-88
2023/10/29 05:42:34;;;;;;;1.60;0.80;;;16.70;99.90;;;;;;5002107;28;20188;-89
2023/10/29 05:45:00;;;;;;;0.70;0.70;;;16.80;99.90;;;;;;5011196;28;20408;-88
2023/10/29 05:47:26;;;;;;;0.80;0.70;;;16.80;99.90;;;;;;5001408;28;20246;-88
2023/10/29 05:49:53;;;;;;;0.80;0.80;;;16.80;99.90;;;;;;5010300;28;20231;-88
2023/10/29 05:52:19;;;;;;;0.70;0.70;;;16.70;99.90;;;;;;5020973;28;20578;-88
2023/10/29 05:54:44;;;;;;;0.97;0.83;;;16.80;99.90;;;;;;5008481;28;20177;-89
2023/10/29 05:57:11;;;;;;;0.80;0.70;;;16.80;99.90;;;;;;5021046;28;20172;-88
2023/10/29 05:59:36;;;;;;;0.80;0.80;;;16.80;99.90;;;;;;5016680;28;20183;-88
2023/10/29 06:02:02;;;;;;;0.70;0.67;;;16.80;99.90;;;;;;4999857;28;20481;-89
2023/10/29 06:04:28;;;;;;;1.13;0.60;;;16.80;99.90;;;;;;5009948;28;20169;-88
2023/10/29 06:06:54;;;;;;;0.70;0.70;;;16.80;99.90;;;;;;5002670;28;20198;-88
2023/10/29 06:09:19;;;;;;;0.97;0.70;;;16.70;99.90;;;;;;5006951;28;20399;-88
2023/10/29 06:11:45;;;;;;;0.80;0.63;;;16.80;99.90;;;;;;5005777;28;20178;-88
2023/10/29 06:14:11;;;;;;;1.37;0.80;;;16.80;99.90;;;;;;5005841;28;20192;-88
2023/10/29 06:16:37;;;;;;;1.73;0.70;;;16.80;99.90;;;;;;5029287;28;20406;-88
2023/10/29 06:19:03;;;;;;;0.60;0.60;;;16.80;99.90;;;;;;5015928;28;20185;-88
2023/10/29 06:21:29;;;;;;;1.17;0.70;;;16.70;99.90;;;;;;5008810;28;20203;-89
2023/10/29 06:23:55;;;;;;;0.60;0.60;;;16.80;99.90;;;;;;4999152;28;20166;-89
2023/10/29 06:26:20;;;;;;;0.93;0.80;;;16.70;99.90;;;;;;5009454;28;20211;-89
2023/10/29 06:28:46;;;;;;;1.03;0.80;;;16.80;99.90;;;;;;4999674;28;20177;-89
2023/10/29 06:31:12;;;;;;;0.93;0.80;;;16.80;99.90;;;;;;5011079;28;20173;-89
2023/10/29 06:33:41;;;;;;;1.10;0.73;;;16.80;99.90;;;;;;4999199;28;20173;-89
2023/10/29 06:36:07;;;;;;;0.70;0.70;;;16.80;99.90;;;;;;5011556;28;20188;-89
2023/10/29 06:38:33;;;;;;;2.30;0.80;;;16.70;99.90;;;;;;4998477;28;20173;-90
2023/10/29 06:40:58;;;;;;;0.80;0.80;;;16.80;99.90;;;;;;5020598;28;20184;-87
2023/10/29 06:43:26;;;;;;;0.63;0.63;;;16.70;99.90;;;;;;5017120;28;20204;-88
2023/10/29 06:45:52;;;;;;;0.60;0.60;;;16.70;99.90;;;;;;5014524;28;20220;-87
2023/10/29 06:48:18;;;;;;;0.70;0.70;;;16.80;99.90;;;;;;5000671;28;20208;-90
2023/10/29 06:50:43;;;;;;;0.60;0.60;;;16.70;99.90;;;;;;5002128;28;20171;-88
2023/10/29 06:53:09;;;;;;;0.63;0.60;;;16.70;99.90;;;;;;5029745;28;20564;-88
2023/10/29 06:55:37;;;;;;;0.70;0.70;;;16.80;99.90;;;;;;5028282;28;20191;-88
2023/10/29 06:58:03;;;;;;;0.87;0.80;;;16.80;99.90;;;;;;5002929;28;20203;-88
2023/10/29 07:00:29;;;;;;;0.70;0.70;;;16.80;99.90;;;;;;5015585;28;20173;-88
2023/10/29 07:02:57;;;;;;;0.70;0.70;;;16.80;99.90;;;;;;5004803;28;20548;-88
2023/10/29 07:05:23;;;;;;;1.67;0.70;;;16.70;99.90;;;;;;4999500;28;20204;-88
2023/10/29 07:07:49;;;;;;;0.60;0.60;;;16.70;99.90;;;;;;5004367;28;20595;-89
2023/10/29 07:10:15;;;;;;;0.93;0.70;;;16.70;99.90;;;;;;5013604;28;20165;-89
2023/10/29 07:12:40;;;;;;;0.70;0.70;;;16.80;99.90;;;;;;5029216;28;20192;-89
2023/10/29 07:15:08;;;;;;;0.73;0.73;;;16.70;99.90;;;;;;5035959;28;20171;-89
2023/10/29 07:17:35;;;;;;;0.80;0.80;;;16.80;99.90;;;;;;5004256;28;20283;-89
2023/10/29 07:20:01;;;;;;;0.60;0.60;;;16.80;99.90;;;;;;5018400;28;20169;-88
2023/10/29 07:22:27;;;;;;;0.77;0.70;;;16.70;99.90;;;;;;5000765;28;20200;-88
2023/10/29 07:24:52;;;;;;;0.80;0.80;;;16.70;99.90;;;;;;4995460;28;20555;-88
2023/10/29 07:27:18;;;;;;;0.90;0.73;;;16.80;99.90;;;;;;5008774;28;20196;-88
2023/10/29 07:29:44;;;;;;;0.73;0.70;;;16.80;99.90;;;;;;5032236;28;20274;-88
2023/10/29 07:32:10;;;;;;;0.97;0.87;;;16.80;99.90;;;;;;5027234;28;20206;-88
2023/10/29 07:34:36;;;;;;;0.87;0.70;;;16.80;99.90;;;;;;5000357;28;20546;-89
2023/10/29 07:37:01;;;;;;;1.00;0.80;;;16.80;99.90;;;;;;5001579;28;20334;-88
2023/10/29 07:39:27;;;;;;;0.60;0.60;;;16.80;99.90;;;;;;5003384;28;20177;-88
2023/10/29 07:41:53;;;;;;;1.50;0.80;;;16.80;99.90;;;;;;4999705;28;20610;-88
2023/10/29 07:44:18;;;;;;;2.00;0.80;;;16.80;99.90;;;;;;5005337;28;20177;-88
2023/10/29 07:46:44;;;;;;;0.53;0.50;;;16.80;99.90;;;;;;5014465;28;20193;-88
2023/10/29 07:49:10;;;;;;;0.70;0.70;;;16.80;99.90;;;;;;5015948;28;20267;-88
2023/10/29 07:51:35;;;;;;;0.60;0.53;;;16.80;99.90;;;;;;5016136;28;20169;-88
2023/10/29 07:54:01;;;;;;;1.43;0.60;;;16.80;99.90;;;;;;5005841;28;20530;-88
2023/10/29 07:56:27;;;;;;;1.10;0.90;;;16.80;99.90;;;;;;5016314;28;20334;-88
2023/10/29 07:58:54;;;;;;;0.60;0.60;;;16.80;99.90;;;;;;5003413;28;20177;-88
2023/10/29 08:01:19;;;;;;;1.07;0.80;;;16.80;99.90;;;;;;5014684;28;20208;-88
2023/10/29 08:03:45;;;;;;;0.80;0.70;;;16.80;99.90;;;;;;5001856;28;20216;-88
2023/10/29 08:06:12;;;;;;;0.70;0.70;;;16.80;99.90;;;;;;5014861;28;20212;-88
2023/10/29 08:08:38;;;;;;;0.60;0.60;;;16.80;99.90;;;;;;5010129;28;20436;-88
2023/10/29 08:11:04;;;;;;;0.70;0.70;;;16.80;99.90;;;;;;5015478;28;20177;-88
2023/10/29 08:13:30;;;;;;;1.63;0.87;;;16.90;99.90;;;;;;5020292;28;20172;-88
2023/10/29 08:15:57;;;;;;;0.77;0.63;;;16.90;99.90;;;;;;4999062;28;20177;-88
2023/10/29 08:18:24;;;;;;;0.77;0.77;;;16.90;99.90;;;;;;5000489;28;20216;-88
2023/10/29 08:20:50;;;;;;;0.63;0.63;;;16.90;99.90;;;;;;5026460;28;20196;-89
2023/10/29 08:23:15;;;;;;;0.80;0.70;;;16.90;99.90;;;;;;5010182;28;20392;-89
2023/10/29 08:25:41;;;;;;;0.87;0.80;;;16.90;99.90;;;;;;5022335;28;20176;-89
2023/10/29 08:28:08;;;;;;;0.80;0.80;;;16.90;99.90;;;;;;5012446;28;20173;-88
2023/10/29 08:30:35;;;;;;;1.27;0.60;;;16.90;99.90;;;;;;5002385;28;20173;-89
2023/10/29 08:33:01;;;;;;;1.10;0.70;;;16.90;99.90;;;;;;5029191;28;20204;-89
2023/10/29 08:35:27;;;;;;;0.87;0.60;;;16.90;99.90;;;;;;5001570;28;20212;-89
2023/10/29 08:37:53;;;;;;;1.43;0.73;;;16.90;99.90;;;;;;5013705;28;20169;-87
2023/10/29 08:40:19;;;;;;;1.23;0.83;;;16.90;99.90;;;;;;5000619;28;20165;-88
2023/10/29 08:42:44;;;;;;;1.33;0.90;;;16.90;99.90;;;;;;5013627;28;20531;-87
2023/10/29 08:45:12;;;;;;;0.90;0.80;;;17.00;99.90;;;;;;5008750;28;20180;-88
2023/10/29 08:47:38;;;;;;;1.07;0.70;;;17.00;99.90;;;;;;4993447;28;20359;-88
2023/10/29 08:50:05;;;;;;;5.90;0.90;;;17.00;99.90;;;;;;5003716;28;20169;-88
2023/10/29 08:52:31;;;;;;;1.47;0.80;;;17.00;99.90;;;;;;4994520;28;20208;-88
2023/10/29 08:54:57;;;;;;;1.90;0.70;;;17.00;99.90;;;;;;4997993;28;20186;-88
2023/10/29 08:57:23;;;;;;;2.03;0.80;;;17.00;99.90;;;;;;5009776;28;20251;-89
2023/10/29 08:59:49;;;;;;;2.50;1.00;;;17.00;99.90;;;;;;5006330;28;20170;-89
2023/10/29 09:02:15;;;;;;;1.80;0.70;;;17.00;99.90;;;;;;5025374;28;20181;-89
2023/10/29 09:04:40;;;;;;;1.83;0.90;;;17.10;99.90;;;;;;5009241;28;20458;-87
2023/10/29 09:07:07;;;;;;;1.40;0.90;;;17.10;99.90;;;;;;5006269;28;20202;-87
2023/10/29 09:09:33;;;;;;;1.53;1.00;;;17.10;99.90;;;;;;5028867;28;20585;-87
2023/10/29 09:12:00;;;;;;;2.83;1.00;;;17.10;99.90;;;;;;5005918;28;20165;-86
2023/10/29 09:14:26;;;;;;;1.17;0.97;;;17.10;99.90;;;;;;5013345;28;20569;-86
2023/10/29 09:16:51;;;;;;;2.40;1.00;;;17.10;99.90;;;;;;5006201;28;20170;-87
2023/10/29 09:19:17;;;;;;;1.50;1.10;;;17.10;99.90;;;;;;4995448;28;20737;-87
2023/10/29 09:21:44;;;;;;;2.30;0.80;;;17.10;99.90;;;;;;5006996;28;20188;-87
2023/10/29 09:24:11;;;;;;;6.30;1.17;;;17.10;99.90;;;;;;4995254;28;20187;-87
2023/10/29 09:26:37;;;;;;;2.23;0.90;;;17.10;99.90;;;;;;5024419;28;20584;-87
2023/10/29 09:29:03;;;;;;;3.17;1.20;;;17.20;99.90;;;;;;4994168;28;20431;-87
2023/10/29 09:31:29;;;;;;;3.10;1.20;;;17.20;99.90;;;;;;5005251;28;20238;-87
2023/10/29 09:33:55;;;;;;;3.60;1.03;;;17.20;99.90;;;;;;5013176;28;20337;-87
2023/10/29 09:36:22;;;;;;;5.43;1.10;;;17.20;99.90;;;;;;5001259;28;20188;-86
2023/10/29 09:38:49;;;;;;;3.07;1.07;;;17.20;99.90;;;;;;5013747;28;20201;-86
2023/10/29 09:41:18;;;;;;;4.90;1.10;;;17.20;99.90;;;;;;5000480;28;20173;-87
2023/10/29 09:43:44;;;;;;;2.47;1.10;;;17.20;99.90;;;;;;5002516;28;20186;-88
2023/10/29 09:46:11;;;;;;;3.03;1.30;;;17.20;99.90;;;;;;4999820;28;20219;-89
2023/10/29 09:48:38;;;;;;;4.43;1.30;;;17.20;99.90;;;;;;5004492;28;20277;-88
2023/10/29 09:51:06;;;;;;;2.97;0.90;;;17.20;99.90;;;;;;4996456;28;20740;-88
2023/10/29 09:53:35;;;;;;;2.67;0.80;;;17.20;99.90;;;;;;5003470;28;20193;-88
2023/10/29 09:56:02;;;;;;;3.20;1.00;;;17.20;99.90;;;;;;4997797;28;20246;-88
2023/10/29 09:58:27;;;;;;;1.83;1.07;;;17.20;99.90;;;;;;5006780;28;20232;-88
2023/10/29 10:00:57;;;;;;;1.57;0.80;;;17.20;99.90;;;;;;4996849;28;20177;-88
2023/10/29 10:03:24;;;;;;;3.97;0.80;;;17.20;99.90;;;;;;5007424;28;20205;-89
2023/10/29 10:05:52;;;;;;;2.90;0.80;;;17.20;99.90;;;;;;4994875;28;20326;-88
2023/10/29 10:08:24;;;;;;;2.07;1.00;;;17.20;99.90;;;;;;5007089;28;20169;-88
2023/10/29 10:10:50;;;;;;;2.53;1.07;;;17.20;99.90;;;;;;4993348;28;20567;-88
2023/10/29 10:13:16;;;;;;;2.43;1.07;;;17.30;99.90;;;;;;5008666;28;20428;-88
2023/10/29 10:15:43;;;;;;;2.10;0.90;;;17.30;99.90;;;;;;5014971;28;20177;-88
2023/10/29 10:18:11;;;;;;;1.20;0.90;;;17.30;99.90;;;;;;5001010;28;20240;-88
2023/10/29 10:20:36;;;;;;;2.70;0.77;;;17.40;99.90;;;;;;5013957;28;20203;-88
2023/10/29 10:23:09;;;;;;;3.40;0.90;;;17.40;99.90;;;;;;5003376;28;20295;-88
2023/10/29 10:25:35;;;;;;;2.43;1.07;;;17.50;99.90;;;;;;5011549;28;20173;-88
2023/10/29 10:28:03;;;;;;;2.63;1.10;;;17.50;99.90;;;;;;5011608;28;20272;-88
2023/10/29 10:30:33;;;;;;;1.33;0.73;;;17.50;99.90;;;;;;5006164;28;20184;-88
2023/10/29 10:33:20;;;;;;;2.10;0.90;;;17.50;99.90;;;;;;5002454;28;20272;-88
2023/10/29 10:35:50;;;;;;;1.90;0.80;;;17.50;99.90;;;;;;4997056;28;20306;-88
2023/10/29 10:38:19;;;;;;;1.07;0.80;;;17.50;99.90;;;;;;5001730;28;20543;-88
2023/10/29 10:40:46;;;;;;;0.97;0.90;;;17.50;99.90;;;;;;5013873;28;20168;-88
2023/10/29 10:43:19;;;;;;;2.13;1.20;;;17.60;99.90;;;;;;5008542;28;20177;-88
2023/10/29 10:45:50;;;;;;;2.00;1.00;;;17.60;99.90;;;;;;5007160;28;20185;-88
2023/10/29 10:48:17;;;;;;;1.10;1.00;;;17.60;99.90;;;;;;5009749;28;20170;-88
2023/10/29 10:50:43;;;;;;;1.90;1.07;;;17.60;99.90;;;;;;5006919;28;20174;-88
2023/10/29 10:53:09;;;;;;;2.67;1.00;;;17.70;99.90;;;;;;5009851;28;20356;-88
2023/10/29 10:55:37;;;;;;;2.47;0.80;;;17.80;99.90;;;;;;5004934;28;20433;-89
2023/10/29 10:58:04;;;;;;;2.03;0.93;;;17.90;99.90;;;;;;4994817;28;20184;-88
2023/10/29 11:00:34;;;;;;;3.23;1.07;;;18.00;99.90;;;;;;5005109;28;20436;-87
2023/10/29 11:03:01;;;;;;;1.03;0.80;;;17.90;99.90;;;;;;4995690;28;20243;-88
2023/10/29 11:05:30;;;;;;;2.33;0.80;;;17.80;99.90;;;;;;5005964;28;20424;-89
2023/10/29 11:07:58;;;;;;;4.20;0.90;;;17.80;99.90;;;;;;4993970;28;20202;-88
2023/10/29 11:10:26;;;;;;;2.13;0.90;;;17.80;99.90;;;;;;5010698;28;20259;-87
2023/10/29 11:12:52;;;;;;;1.03;0.80;;;17.70;99.90;;;;;;5010552;28;20234;-87
2023/10/29 11:15:19;;;;;;;1.20;0.80;;;17.70;99.90;;;;;;5014248;28;20192;-87
2023/10/29 11:18:02;;;;;;;1.80;0.80;;;17.70;99.90;;;;;;5009468;28;20262;-88
2023/10/29 11:20:38;;;;;;;2.33;1.00;;;17.70;99.90;;;;;;4999816;28;20174;-88
2023/10/29 11:23:14;;;;;;;1.63;0.93;;;17.70;99.90;;;;;;5030258;28;20230;-88
2023/10/29 11:25:41;;;;;;;2.53;1.20;;;17.70;99.90;;;;;;5007181;28;20176;-88
2023/10/29 11:28:33;;;;;;;2.27;0.93;;;17.70;99.90;;;;;;4993283;28;20177;-88
2023/10/29 11:31:14;;;;;;;2.57;1.00;;;17.70;99.90;;;;;;5024563;28;20181;-88
2023/10/29 11:33:42;;;;;;;2.20;1.00;;;17.70;99.90;;;;;;5012391;28;20203;-88
2023/10/29 11:36:35;;;;;;;1.33;1.00;;;17.70;99.90;;;;;;5004862;28;20199;-88
2023/10/29 11:39:16;;;;;;;1.83;0.97;;;17.70;99.90;;;;;;4990553;28;20241;-88
2023/10/29 11:41:43;;;;;;;2.63;1.00;;;17.70;99.90;;;;;;4998093;28;20200;-87
2023/10/29 11:44:20;;;;;;;4.37;1.07;;;17.70;99.90;;;;;;5010489;28;20224;-87
2023/10/29 11:46:58;;;;;;;2.47;1.03;;;17.70;99.90;;;;;;5019498;28;20224;-87
2023/10/29 11:49:29;;;;;;;2.90;1.10;;;17.70;99.90;;;;;;4990789;28;20177;-88
2023/10/29 11:52:02;;;;;;;4.47;1.27;;;17.70;99.90;;;;;;5004150;28;20184;-87
2023/10/29 11:54:32;;;;;;;1.93;1.00;;;17.70;99.90;;;;;;4987865;28;20454;-86
2023/10/29 11:56:59;;;;;;;2.30;0.90;;;17.70;99.90;;;;;;5004202;28;20177;-87
2023/10/29 11:59:25;;;;;;;4.20;1.00;;;17.70;99.90;;;;;;4990146;28;20730;-87
2023/10/29 12:01:51;;;;;;;2.90;1.30;;;17.70;99.90;;;;;;5002104;28;20176;-87
2023/10/29 12:04:17;;;;;;;3.63;0.90;;;17.70;99.90;;;;;;4990295;28;20398;-87
2023/10/29 12:06:45;;;;;;;2.70;1.07;;;17.70;99.90;;;;;;4999484;28;20433;-87
2023/10/29 12:09:19;;;;;;;2.50;1.10;;;17.70;99.90;;;;;;4991400;28;20177;-88
2023/10/29 12:11:49;;;;;;;2.83;0.90;;;17.70;99.90;;;;;;4999260;28;20192;-87
2023/10/29 12:14:15;;;;;;;2.83;1.20;;;17.70;99.90;;;;;;4989476;28;20701;-87
2023/10/29 12:16:41;;;;;;;1.80;1.10;;;17.70;99.90;;;;;;4993079;28;20193;-87
2023/10/29 12:19:07;;;;;;;2.43;1.10;;;17.70;99.90;;;;;;5006154;28;20209;-87
2023/10/29 12:21:33;;;;;;;1.27;0.93;;;17.70;99.90;;;;;;5020783;28;20207;-86
2023/10/29 12:24:01;;;;;;;1.60;0.90;;;17.70;99.90;;;;;;4996162;28;20178;-86
2023/10/29 12:26:27;;;;;;;1.90;1.00;;;17.70;99.90;;;;;;4993300;28;20343;-88
2023/10/29 12:28:54;;;;;;;2.07;0.83;;;17.70;99.90;;;;;;4997317;28;20192;-88
2023/10/29 12:31:27;;;;;;;2.33;0.90;;;17.70;99.90;;;;;;4992376;28;20256;-87
2023/10/29 12:34:00;;;;;;;1.93;0.90;;;17.70;99.90;;;;;;5005215;28;20197;-86
2023/10/29 12:36:26;;;;;;;1.83;0.93;;;17.70;99.90;;;;;;4993243;28;20539;-87
2023/10/29 12:38:53;;;;;;;3.00;1.00;;;17.70;99.90;;;;;;5011367;28;20176;-87
2023/10/29 12:41:27;;;;;;;2.37;1.07;;;17.70;99.90;;;;;;5013754;28;20177;-87
2023/10/29 12:43:53;;;;;;;3.07;1.17;;;17.60;99.90;;;;;;5003222;28;20191;-87
2023/10/29 12:46:24;;;;;;;2.57;1.00;;;17.70;99.90;;;;;;5014646;28;20261;-87